sensor_id;sensor_type;location;lat;lon;timestamp;temperature;humidity
37528;DHT22;23372;52.050;4.810;2023-03-01T00:00:19;0.80;99.90
37528;DHT22;23372;52.050;4.810;2023-03-01T00:02:44;0.80;99.90
37528;DHT22;23372;52.050;4.810;2023-03-01T00:05:10;0.70;99.90
37528;DHT22;23372;52.050;4.810;2023-03-01T00:07:35;0.70;99.90
37528;DHT22;23372;52.050;4.810;2023-03-01T00:10:01;0.70;99.90
37528;DHT22;23372;52.050;4.810;2023-03-01T00:12:27;0.70;99.90
37528;DHT22;23372;52.050;4.810;2023-03-01T00:14:53;0.70;99.90
37528;DHT22;23372;52.050;4.810;2023-03-01T00:17:18;0.70;99.90
37528;DHT22;23372;52.050;4.810;2023-03-01T00:19:44;0.60;99.90
37528;DHT22;23372;52.050;4.810;2023-03-01T00:22:09;0.70;99.90
37528;DHT22;23372;52.050;4.810;2023-03-01T00:24:35;0.70;99.90
37528;DHT22;23372;52.050;4.810;2023-03-01T00:27:00;0.70;99.90
37528;DHT22;23372;52.050;4.810;2023-03-01T00:29:26;0.70;99.90
37528;DHT22;23372;52.050;4.810;2023-03-01T00:31:51;0.70;99.90
37528;DHT22;23372;52.050;4.810;2023-03-01T00:34:17;0.60;99.90
37528;DHT22;23372;52.050;4.810;2023-03-01T00:36:43;0.70;99.90
37528;DHT22;23372;52.050;4.810;2023-03-01T00:39:12;0.70;99.90
37528;DHT22;23372;52.050;4.810;2023-03-01T00:41:38;0.70;99.90
37528;DHT22;23372;52.050;4.810;2023-03-01T00:44:05;0.70;99.90
37528;DHT22;23372;52.050;4.810;2023-03-01T00:46:30;0.60;99.90
37528;DHT22;23372;52.050;4.810;2023-03-01T00:48:56;0.60;99.90
37528;DHT22;23372;52.050;4.810;2023-03-01T00:51:27;0.60;99.90
37528;DHT22;23372;52.050;4.810;2023-03-01T00:53:55;0.50;99.90
37528;DHT22;23372;52.050;4.810;2023-03-01T00:56:21;0.50;99.90
37528;DHT22;23372;52.050;4.810;2023-03-01T00:58:47;0.50;99.90
37528;DHT22;23372;52.050;4.810;2023-03-01T01:01:14;0.50;99.90
37528;DHT22;23372;52.050;4.810;2023-03-01T01:03:48;0.50;99.90
37528;DHT22;23372;52.050;4.810;2023-03-01T01:06:19;0.50;99.90
37528;DHT22;23372;52.050;4.810;2023-03-01T01:08:46;0.50;99.90
37528;DHT22;23372;52.050;4.810;2023-03-01T01:11:12;0.50;99.90
37528;DHT22;23372;52.050;4.810;2023-03-01T01:13:39;0.50;99.90
37528;DHT22;23372;52.050;4.810;2023-03-01T01:16:05;0.50;99.90
37528;DHT22;23372;52.050;4.810;2023-03-01T01:18:31;0.50;99.90
37528;DHT22;23372;52.050;4.810;2023-03-01T01:20:56;0.50;99.90
37528;DHT22;23372;52.050;4.810;2023-03-01T01:23:22;0.50;99.90
37528;DHT22;23372;52.050;4.810;2023-03-01T01:25:47;0.50;99.90
37528;DHT22;23372;52.050;4.810;2023-03-01T01:28:13;0.50;99.90
37528;DHT22;23372;52.050;4.810;2023-03-01T01:30:38;0.50;99.90
37528;DHT22;23372;52.050;4.810;2023-03-01T01:33:04;0.50;99.90
37528;DHT22;23372;52.050;4.810;2023-03-01T01:35:29;0.40;99.90
37528;DHT22;23372;52.050;4.810;2023-03-01T01:37:55;0.40;99.90
37528;DHT22;23372;52.050;4.810;2023-03-01T01:40:20;0.30;99.90
37528;DHT22;23372;52.050;4.810;2023-03-01T01:42:46;0.30;99.90
37528;DHT22;23372;52.050;4.810;2023-03-01T01:45:33;0.20;99.90
37528;DHT22;23372;52.050;4.810;2023-03-01T01:48:06;0.30;99.90
37528;DHT22;23372;52.050;4.810;2023-03-01T01:50:36;0.30;99.90
37528;DHT22;23372;52.050;4.810;2023-03-01T01:53:12;0.20;99.90
37528;DHT22;23372;52.050;4.810;2023-03-01T01:55:43;0.20;99.90
37528;DHT22;23372;52.050;4.810;2023-03-01T01:58:12;0.10;99.90
37528;DHT22;23372;52.050;4.810;2023-03-01T02:00:39;0.10;99.90
37528;DHT22;23372;52.050;4.810;2023-03-01T02:03:10;0.10;99.90
37528;DHT22;23372;52.050;4.810;2023-03-01T02:08:12;0.10;99.90
37528;DHT22;23372;52.050;4.810;2023-03-01T02:10:38;0.20;99.90
37528;DHT22;23372;52.050;4.810;2023-03-01T02:13:04;0.20;99.90
37528;DHT22;23372;52.050;4.810;2023-03-01T02:15:34;0.20;99.90
37528;DHT22;23372;52.050;4.810;2023-03-01T02:18:01;0.20;99.90
37528;DHT22;23372;52.050;4.810;2023-03-01T02:20:35;0.20;99.90
37528;DHT22;23372;52.050;4.810;2023-03-01T02:23:04;0.20;99.90
37528;DHT22;23372;52.050;4.810;2023-03-01T02:30:42;0.20;99.90
37528;DHT22;23372;52.050;4.810;2023-03-01T02:33:27;0.20;99.90
37528;DHT22;23372;52.050;4.810;2023-03-01T02:35:54;0.30;99.90
37528;DHT22;23372;52.050;4.810;2023-03-01T02:38:22;0.30;99.90
37528;DHT22;23372;52.050;4.810;2023-03-01T02:40:50;0.30;99.90
37528;DHT22;23372;52.050;4.810;2023-03-01T02:43:17;0.30;99.90
37528;DHT22;23372;52.050;4.810;2023-03-01T02:45:52;0.20;99.90
37528;DHT22;23372;52.050;4.810;2023-03-01T02:48:19;0.20;99.90
37528;DHT22;23372;52.050;4.810;2023-03-01T02:56:43;0.20;99.90
37528;DHT22;23372;52.050;4.810;2023-03-01T02:59:09;0.10;99.90
37528;DHT22;23372;52.050;4.810;2023-03-01T03:01:35;0.10;99.90
37528;DHT22;23372;52.050;4.810;2023-03-01T03:04:09;0.10;99.90
37528;DHT22;23372;52.050;4.810;2023-03-01T03:06:35;0.10;99.90
37528;DHT22;23372;52.050;4.810;2023-03-01T03:09:01;0.10;99.90
37528;DHT22;23372;52.050;4.810;2023-03-01T03:11:27;0.10;99.90
37528;DHT22;23372;52.050;4.810;2023-03-01T03:13:53;0.00;99.90
37528;DHT22;23372;52.050;4.810;2023-03-01T03:16:19;0.00;99.90
37528;DHT22;23372;52.050;4.810;2023-03-01T03:18:45;0.00;99.90
37528;DHT22;23372;52.050;4.810;2023-03-01T03:21:14;0.00;99.90
37528;DHT22;23372;52.050;4.810;2023-03-01T03:23:40;0.00;99.90
37528;DHT22;23372;52.050;4.810;2023-03-01T03:26:06;0.10;99.90
37528;DHT22;23372;52.050;4.810;2023-03-01T03:28:33;0.00;99.90
37528;DHT22;23372;52.050;4.810;2023-03-01T03:30:59;-0.10;99.90
37528;DHT22;23372;52.050;4.810;2023-03-01T03:33:29;-0.10;99.90
37528;DHT22;23372;52.050;4.810;2023-03-01T03:35:54;-0.10;99.90
37528;DHT22;23372;52.050;4.810;2023-03-01T03:38:20;-0.10;99.90
37528;DHT22;23372;52.050;4.810;2023-03-01T03:41:07;-0.10;99.90
37528;DHT22;23372;52.050;4.810;2023-03-01T03:43:35;-0.10;99.90
37528;DHT22;23372;52.050;4.810;2023-03-01T03:46:02;-0.10;99.90
37528;DHT22;23372;52.050;4.810;2023-03-01T03:48:34;-0.20;99.90
37528;DHT22;23372;52.050;4.810;2023-03-01T03:51:00;-0.20;99.90
37528;DHT22;23372;52.050;4.810;2023-03-01T03:53:28;-0.20;99.90
37528;DHT22;23372;52.050;4.810;2023-03-01T03:55:54;-0.40;99.90
37528;DHT22;23372;52.050;4.810;2023-03-01T03:58:22;-0.60;99.90
37528;DHT22;23372;52.050;4.810;2023-03-01T04:00:53;-0.80;99.90
37528;DHT22;23372;52.050;4.810;2023-03-01T04:03:20;-0.90;99.90
37528;DHT22;23372;52.050;4.810;2023-03-01T04:05:46;-1.10;99.90
37528;DHT22;23372;52.050;4.810;2023-03-01T04:08:12;-1.10;99.90
37528;DHT22;23372;52.050;4.810;2023-03-01T04:10:40;-1.10;99.90
37528;DHT22;23372;52.050;4.810;2023-03-01T04:13:07;-1.00;99.90
37528;DHT22;23372;52.050;4.810;2023-03-01T04:15:34;-1.00;99.90
37528;DHT22;23372;52.050;4.810;2023-03-01T04:18:00;-0.90;99.90
37528;DHT22;23372;52.050;4.810;2023-03-01T04:20:29;-0.80;99.90
37528;DHT22;23372;52.050;4.810;2023-03-01T04:23:10;-1.00;99.90
37528;DHT22;23372;52.050;4.810;2023-03-01T04:25:58;-1.00;99.90
37528;DHT22;23372;52.050;4.810;2023-03-01T04:28:26;-1.10;99.90
37528;DHT22;23372;52.050;4.810;2023-03-01T04:30:53;-1.10;99.90
37528;DHT22;23372;52.050;4.810;2023-03-01T04:33:19;-1.00;99.90
37528;DHT22;23372;52.050;4.810;2023-03-01T04:35:45;-1.10;99.90
37528;DHT22;23372;52.050;4.810;2023-03-01T04:38:11;-1.10;99.90
37528;DHT22;23372;52.050;4.810;2023-03-01T04:40:37;-1.20;99.90
37528;DHT22;23372;52.050;4.810;2023-03-01T04:43:03;-1.30;99.90
37528;DHT22;23372;52.050;4.810;2023-03-01T04:45:29;-1.50;99.90
37528;DHT22;23372;52.050;4.810;2023-03-01T04:47:55;-1.60;99.90
37528;DHT22;23372;52.050;4.810;2023-03-01T04:50:23;-1.70;99.90
37528;DHT22;23372;52.050;4.810;2023-03-01T04:52:50;-1.70;99.90
37528;DHT22;23372;52.050;4.810;2023-03-01T04:55:16;-1.70;99.90
37528;DHT22;23372;52.050;4.810;2023-03-01T04:57:42;-1.70;99.90
37528;DHT22;23372;52.050;4.810;2023-03-01T05:00:11;-1.80;99.90
37528;DHT22;23372;52.050;4.810;2023-03-01T05:02:51;-1.80;99.90
37528;DHT22;23372;52.050;4.810;2023-03-01T05:05:20;-1.90;99.90
37528;DHT22;23372;52.050;4.810;2023-03-01T05:07:46;-1.90;99.90
37528;DHT22;23372;52.050;4.810;2023-03-01T05:10:12;-1.80;99.90
37528;DHT22;23372;52.050;4.810;2023-03-01T05:12:37;-1.70;99.90
37528;DHT22;23372;52.050;4.810;2023-03-01T05:15:04;-1.70;99.90
37528;DHT22;23372;52.050;4.810;2023-03-01T05:17:33;-1.70;99.90
37528;DHT22;23372;52.050;4.810;2023-03-01T05:19:59;-1.80;99.90
37528;DHT22;23372;52.050;4.810;2023-03-01T05:22:25;-1.80;99.90
37528;DHT22;23372;52.050;4.810;2023-03-01T05:24:51;-1.90;99.90
37528;DHT22;23372;52.050;4.810;2023-03-01T05:27:16;-1.90;99.90
37528;DHT22;23372;52.050;4.810;2023-03-01T05:29:42;-1.90;99.90
37528;DHT22;23372;52.050;4.810;2023-03-01T05:32:07;-1.90;99.90
37528;DHT22;23372;52.050;4.810;2023-03-01T05:34:35;-1.90;99.90
37528;DHT22;23372;52.050;4.810;2023-03-01T05:37:02;-1.80;99.90
37528;DHT22;23372;52.050;4.810;2023-03-01T05:39:29;-1.80;99.90
37528;DHT22;23372;52.050;4.810;2023-03-01T05:41:56;-1.70;99.90
37528;DHT22;23372;52.050;4.810;2023-03-01T05:44:22;-1.60;99.90
37528;DHT22;23372;52.050;4.810;2023-03-01T05:46:48;-1.50;99.90
37528;DHT22;23372;52.050;4.810;2023-03-01T05:49:15;-1.40;99.90
37528;DHT22;23372;52.050;4.810;2023-03-01T05:51:41;-1.50;99.90
37528;DHT22;23372;52.050;4.810;2023-03-01T05:54:08;-1.60;99.90
37528;DHT22;23372;52.050;4.810;2023-03-01T05:56:35;-1.80;99.90
37528;DHT22;23372;52.050;4.810;2023-03-01T05:59:02;-1.90;99.90
37528;DHT22;23372;52.050;4.810;2023-03-01T06:01:28;-1.90;99.90
37528;DHT22;23372;52.050;4.810;2023-03-01T06:03:55;-1.90;99.90
37528;DHT22;23372;52.050;4.810;2023-03-01T06:06:22;-1.80;99.90
37528;DHT22;23372;52.050;4.810;2023-03-01T06:08:47;-1.80;99.90
37528;DHT22;23372;52.050;4.810;2023-03-01T06:11:13;-1.70;99.90
37528;DHT22;23372;52.050;4.810;2023-03-01T06:13:39;-1.60;99.90
37528;DHT22;23372;52.050;4.810;2023-03-01T06:16:07;-1.50;99.90
37528;DHT22;23372;52.050;4.810;2023-03-01T06:18:33;-1.50;99.90
37528;DHT22;23372;52.050;4.810;2023-03-01T06:20:59;-1.40;99.90
37528;DHT22;23372;52.050;4.810;2023-03-01T06:23:25;-1.50;99.90
37528;DHT22;23372;52.050;4.810;2023-03-01T06:25:50;-1.40;99.90
37528;DHT22;23372;52.050;4.810;2023-03-01T06:28:16;-1.40;99.90
37528;DHT22;23372;52.050;4.810;2023-03-01T06:30:42;-1.40;99.90
37528;DHT22;23372;52.050;4.810;2023-03-01T06:33:07;-1.30;99.90
37528;DHT22;23372;52.050;4.810;2023-03-01T06:35:33;-1.30;99.90
37528;DHT22;23372;52.050;4.810;2023-03-01T06:38:00;-1.30;99.90
37528;DHT22;23372;52.050;4.810;2023-03-01T06:40:26;-1.20;99.90
37528;DHT22;23372;52.050;4.810;2023-03-01T06:42:52;-1.10;99.90
37528;DHT22;23372;52.050;4.810;2023-03-01T06:45:19;-1.10;99.90
37528;DHT22;23372;52.050;4.810;2023-03-01T06:47:45;-1.00;99.90
37528;DHT22;23372;52.050;4.810;2023-03-01T06:50:11;-1.00;99.90
37528;DHT22;23372;52.050;4.810;2023-03-01T06:52:37;-1.00;99.90
37528;DHT22;23372;52.050;4.810;2023-03-01T06:55:03;-1.00;99.90
37528;DHT22;23372;52.050;4.810;2023-03-01T06:57:29;-1.00;99.90
37528;DHT22;23372;52.050;4.810;2023-03-01T06:59:55;-0.90;99.90
37528;DHT22;23372;52.050;4.810;2023-03-01T07:02:20;-0.80;99.90
37528;DHT22;23372;52.050;4.810;2023-03-01T07:04:46;-0.90;99.90
37528;DHT22;23372;52.050;4.810;2023-03-01T07:07:11;-0.70;99.90
37528;DHT22;23372;52.050;4.810;2023-03-01T07:09:37;-0.70;99.90
37528;DHT22;23372;52.050;4.810;2023-03-01T07:12:03;-0.60;99.90
37528;DHT22;23372;52.050;4.810;2023-03-01T07:14:28;-0.50;99.90
37528;DHT22;23372;52.050;4.810;2023-03-01T07:16:54;-0.40;99.90
37528;DHT22;23372;52.050;4.810;2023-03-01T07:19:21;-0.10;99.90
37528;DHT22;23372;52.050;4.810;2023-03-01T07:21:46;1.00;99.90
37528;DHT22;23372;52.050;4.810;2023-03-01T07:24:12;2.10;99.90
37528;DHT22;23372;52.050;4.810;2023-03-01T07:26:37;3.30;99.90
37528;DHT22;23372;52.050;4.810;2023-03-01T07:29:05;4.20;99.90
37528;DHT22;23372;52.050;4.810;2023-03-01T07:31:31;4.60;99.90
37528;DHT22;23372;52.050;4.810;2023-03-01T07:33:57;4.40;99.90
37528;DHT22;23372;52.050;4.810;2023-03-01T07:36:23;4.10;99.90
37528;DHT22;23372;52.050;4.810;2023-03-01T07:38:50;4.00;99.90
37528;DHT22;23372;52.050;4.810;2023-03-01T07:41:16;3.90;99.90
37528;DHT22;23372;52.050;4.810;2023-03-01T07:43:41;4.30;99.90
37528;DHT22;23372;52.050;4.810;2023-03-01T07:46:07;4.30;99.90
37528;DHT22;23372;52.050;4.810;2023-03-01T07:48:33;5.20;99.90
37528;DHT22;23372;52.050;4.810;2023-03-01T07:51:00;6.10;99.90
37528;DHT22;23372;52.050;4.810;2023-03-01T07:53:27;6.80;99.90
37528;DHT22;23372;52.050;4.810;2023-03-01T07:56:10;7.30;99.90
37528;DHT22;23372;52.050;4.810;2023-03-01T07:58:41;6.70;99.90
37528;DHT22;23372;52.050;4.810;2023-03-01T08:01:10;5.80;99.90
37528;DHT22;23372;52.050;4.810;2023-03-01T08:03:36;4.90;99.90
37528;DHT22;23372;52.050;4.810;2023-03-01T08:06:04;4.20;99.90
37528;DHT22;23372;52.050;4.810;2023-03-01T08:08:30;4.60;99.90
37528;DHT22;23372;52.050;4.810;2023-03-01T08:10:57;5.10;99.90
37528;DHT22;23372;52.050;4.810;2023-03-01T08:13:23;5.00;99.90
37528;DHT22;23372;52.050;4.810;2023-03-01T08:15:49;4.20;99.90
37528;DHT22;23372;52.050;4.810;2023-03-01T08:18:16;3.50;99.90
37528;DHT22;23372;52.050;4.810;2023-03-01T08:20:42;3.20;99.90
37528;DHT22;23372;52.050;4.810;2023-03-01T08:23:07;3.10;99.90
37528;DHT22;23372;52.050;4.810;2023-03-01T08:25:33;3.20;99.90
37528;DHT22;23372;52.050;4.810;2023-03-01T08:27:59;3.50;99.90
37528;DHT22;23372;52.050;4.810;2023-03-01T08:30:24;4.30;99.90
37528;DHT22;23372;52.050;4.810;2023-03-01T08:32:50;4.70;99.90
37528;DHT22;23372;52.050;4.810;2023-03-01T08:35:17;4.70;99.90
37528;DHT22;23372;52.050;4.810;2023-03-01T08:37:42;5.20;99.90
37528;DHT22;23372;52.050;4.810;2023-03-01T08:40:08;6.50;99.90
37528;DHT22;23372;52.050;4.810;2023-03-01T08:42:36;8.30;99.90
37528;DHT22;23372;52.050;4.810;2023-03-01T08:45:05;9.50;99.90
37528;DHT22;23372;52.050;4.810;2023-03-01T08:47:31;9.40;99.90
37528;DHT22;23372;52.050;4.810;2023-03-01T08:49:59;8.40;99.90
37528;DHT22;23372;52.050;4.810;2023-03-01T08:52:24;7.30;99.90
37528;DHT22;23372;52.050;4.810;2023-03-01T08:54:51;6.50;99.90
37528;DHT22;23372;52.050;4.810;2023-03-01T08:57:17;6.10;99.90
37528;DHT22;23372;52.050;4.810;2023-03-01T08:59:42;6.00;99.90
37528;DHT22;23372;52.050;4.810;2023-03-01T09:02:13;5.80;99.90
37528;DHT22;23372;52.050;4.810;2023-03-01T09:04:40;5.70;99.90
37528;DHT22;23372;52.050;4.810;2023-03-01T09:07:06;5.70;99.90
37528;DHT22;23372;52.050;4.810;2023-03-01T09:09:31;5.90;99.90
37528;DHT22;23372;52.050;4.810;2023-03-01T09:11:57;6.00;99.90
37528;DHT22;23372;52.050;4.810;2023-03-01T09:14:22;5.90;99.90
37528;DHT22;23372;52.050;4.810;2023-03-01T09:16:48;6.20;99.90
37528;DHT22;23372;52.050;4.810;2023-03-01T09:19:14;6.20;99.90
37528;DHT22;23372;52.050;4.810;2023-03-01T09:21:40;6.10;99.90
37528;DHT22;23372;52.050;4.810;2023-03-01T09:24:12;6.10;99.90
37528;DHT22;23372;52.050;4.810;2023-03-01T09:26:38;6.70;99.90
37528;DHT22;23372;52.050;4.810;2023-03-01T09:29:04;7.40;99.90
37528;DHT22;23372;52.050;4.810;2023-03-01T09:31:30;7.20;99.90
37528;DHT22;23372;52.050;4.810;2023-03-01T09:33:55;6.40;99.90
37528;DHT22;23372;52.050;4.810;2023-03-01T09:36:22;6.00;99.90
37528;DHT22;23372;52.050;4.810;2023-03-01T09:38:50;5.80;99.90
37528;DHT22;23372;52.050;4.810;2023-03-01T09:44:45;5.90;99.90
37528;DHT22;23372;52.050;4.810;2023-03-01T09:46:45;6.30;99.90
37528;DHT22;23372;52.050;4.810;2023-03-01T09:51:43;7.20;99.90
37528;DHT22;23372;52.050;4.810;2023-03-01T09:54:13;7.60;99.90
37528;DHT22;23372;52.050;4.810;2023-03-01T10:04:55;8.70;99.90
37528;DHT22;23372;52.050;4.810;2023-03-01T10:09:55;9.00;99.90
37528;DHT22;23372;52.050;4.810;2023-03-01T10:12:27;8.70;99.90
37528;DHT22;23372;52.050;4.810;2023-03-01T10:15:07;9.70;99.90
37528;DHT22;23372;52.050;4.810;2023-03-01T10:17:57;10.30;99.90
37528;DHT22;23372;52.050;4.810;2023-03-01T10:20:42;11.70;99.90
37528;DHT22;23372;52.050;4.810;2023-03-01T10:23:10;12.20;99.90
37528;DHT22;23372;52.050;4.810;2023-03-01T10:30:53;11.10;99.90
37528;DHT22;23372;52.050;4.810;2023-03-01T10:33:38;10.60;99.90
37528;DHT22;23372;52.050;4.810;2023-03-01T10:36:05;9.50;99.90
37528;DHT22;23372;52.050;4.810;2023-03-01T10:38:50;8.60;99.90
37528;DHT22;23372;52.050;4.810;2023-03-01T10:41:18;8.40;99.90
37528;DHT22;23372;52.050;4.810;2023-03-01T10:43:48;8.00;99.90
37528;DHT22;23372;52.050;4.810;2023-03-01T10:46:35;8.10;99.90
37528;DHT22;23372;52.050;4.810;2023-03-01T10:49:22;8.10;99.90
37528;DHT22;23372;52.050;4.810;2023-03-01T10:51:50;8.40;99.90
37528;DHT22;23372;52.050;4.810;2023-03-01T10:54:24;8.90;99.90
37528;DHT22;23372;52.050;4.810;2023-03-01T10:57:03;9.30;99.90
37528;DHT22;23372;52.050;4.810;2023-03-01T10:59:31;11.10;99.90
37528;DHT22;23372;52.050;4.810;2023-03-01T11:04:38;12.20;99.90
37528;DHT22;23372;52.050;4.810;2023-03-01T11:07:03;12.10;99.90
37528;DHT22;23372;52.050;4.810;2023-03-01T11:09:34;12.00;99.90
37528;DHT22;23372;52.050;4.810;2023-03-01T11:12:13;11.10;99.90
37528;DHT22;23372;52.050;4.810;2023-03-01T11:14:47;10.60;99.90
37528;DHT22;23372;52.050;4.810;2023-03-01T11:17:23;10.10;99.90
37528;DHT22;23372;52.050;4.810;2023-03-01T11:22:35;8.50;99.90
37528;DHT22;23372;52.050;4.810;2023-03-01T11:25:02;8.00;99.90
37528;DHT22;23372;52.050;4.810;2023-03-01T11:27:46;7.70;99.90
37528;DHT22;23372;52.050;4.810;2023-03-01T11:30:38;7.50;99.90
37528;DHT22;23372;52.050;4.810;2023-03-01T11:35:57;7.50;99.90
37528;DHT22;23372;52.050;4.810;2023-03-01T11:38:23;7.50;99.90
37528;DHT22;23372;52.050;4.810;2023-03-01T11:51:53;7.50;99.90
37528;DHT22;23372;52.050;4.810;2023-03-01T11:54:33;7.70;99.90
37528;DHT22;23372;52.050;4.810;2023-03-01T11:57:15;7.80;99.90
37528;DHT22;23372;52.050;4.810;2023-03-01T12:00:18;7.80;99.90
37528;DHT22;23372;52.050;4.810;2023-03-01T12:05:41;8.20;99.90
37528;DHT22;23372;52.050;4.810;2023-03-01T12:19:15;8.00;99.90
37528;DHT22;23372;52.050;4.810;2023-03-01T12:24:36;7.90;99.90
37528;DHT22;23372;52.050;4.810;2023-03-01T12:33:10;8.10;99.90
37528;DHT22;23372;52.050;4.810;2023-03-01T12:43:34;7.90;99.90
37528;DHT22;23372;52.050;4.810;2023-03-01T12:51:25;7.80;99.90
37528;DHT22;23372;52.050;4.810;2023-03-01T12:53:54;7.90;99.90
37528;DHT22;23372;52.050;4.810;2023-03-01T12:56:23;7.70;99.90
37528;DHT22;23372;52.050;4.810;2023-03-01T12:59:17;7.50;99.90
37528;DHT22;23372;52.050;4.810;2023-03-01T13:08:14;7.40;99.90
37528;DHT22;23372;52.050;4.810;2023-03-01T13:10:50;7.60;99.90
37528;DHT22;23372;52.050;4.810;2023-03-01T13:13:22;7.60;99.90
37528;DHT22;23372;52.050;4.810;2023-03-01T13:15:49;7.50;99.90
37528;DHT22;23372;52.050;4.810;2023-03-01T13:26:14;7.40;99.90
37528;DHT22;23372;52.050;4.810;2023-03-01T13:28:54;7.40;99.90
37528;DHT22;23372;52.050;4.810;2023-03-01T13:33:54;7.40;99.90
37528;DHT22;23372;52.050;4.810;2023-03-01T13:38:56;7.60;99.90
37528;DHT22;23372;52.050;4.810;2023-03-01T13:46:44;7.50;99.90
37528;DHT22;23372;52.050;4.810;2023-03-01T13:49:14;7.40;99.90
37528;DHT22;23372;52.050;4.810;2023-03-01T13:51:41;7.30;99.90
37528;DHT22;23372;52.050;4.810;2023-03-01T13:54:11;7.30;99.90
37528;DHT22;23372;52.050;4.810;2023-03-01T13:56:37;7.40;99.90
37528;DHT22;23372;52.050;4.810;2023-03-01T13:59:17;7.50;99.90
37528;DHT22;23372;52.050;4.810;2023-03-01T14:01:43;7.40;99.90
37528;DHT22;23372;52.050;4.810;2023-03-01T14:04:22;7.50;99.90
37528;DHT22;23372;52.050;4.810;2023-03-01T14:06:47;7.50;99.90
37528;DHT22;23372;52.050;4.810;2023-03-01T14:09:27;7.50;99.90
37528;DHT22;23372;52.050;4.810;2023-03-01T14:12:09;7.50;99.90
37528;DHT22;23372;52.050;4.810;2023-03-01T14:18:01;7.50;99.90
37528;DHT22;23372;52.050;4.810;2023-03-01T14:20:38;7.50;99.90
37528;DHT22;23372;52.050;4.810;2023-03-01T14:23:11;7.40;99.90
37528;DHT22;23372;52.050;4.810;2023-03-01T14:25:38;7.40;99.90
37528;DHT22;23372;52.050;4.810;2023-03-01T14:30:53;7.50;99.90
37528;DHT22;23372;52.050;4.810;2023-03-01T14:33:24;7.50;99.90
37528;DHT22;23372;52.050;4.810;2023-03-01T14:36:07;7.50;99.90
37528;DHT22;23372;52.050;4.810;2023-03-01T14:41:10;7.50;99.90
37528;DHT22;23372;52.050;4.810;2023-03-01T14:43:38;7.50;99.90
37528;DHT22;23372;52.050;4.810;2023-03-01T14:46:06;7.50;99.90
37528;DHT22;23372;52.050;4.810;2023-03-01T14:48:32;7.40;99.90
37528;DHT22;23372;52.050;4.810;2023-03-01T14:50:57;7.40;99.90
37528;DHT22;23372;52.050;4.810;2023-03-01T14:53:27;7.50;99.90
37528;DHT22;23372;52.050;4.810;2023-03-01T14:56:01;7.50;99.90
37528;DHT22;23372;52.050;4.810;2023-03-01T14:58:32;7.60;99.90
37528;DHT22;23372;52.050;4.810;2023-03-01T15:01:01;7.70;99.90
37528;DHT22;23372;52.050;4.810;2023-03-01T15:03:36;7.80;99.90
37528;DHT22;23372;52.050;4.810;2023-03-01T15:06:04;7.80;99.90
37528;DHT22;23372;52.050;4.810;2023-03-01T15:08:31;7.80;99.90
37528;DHT22;23372;52.050;4.810;2023-03-01T15:11:22;7.80;99.90
37528;DHT22;23372;52.050;4.810;2023-03-01T15:13:50;7.70;99.90
37528;DHT22;23372;52.050;4.810;2023-03-01T15:16:26;7.70;99.90
37528;DHT22;23372;52.050;4.810;2023-03-01T15:19:05;7.70;99.90
37528;DHT22;23372;52.050;4.810;2023-03-01T15:21:38;7.70;99.90
37528;DHT22;23372;52.050;4.810;2023-03-01T15:26:49;7.80;99.90
37528;DHT22;23372;52.050;4.810;2023-03-01T15:29:26;7.90;99.90
37528;DHT22;23372;52.050;4.810;2023-03-01T15:32:05;7.90;99.90
37528;DHT22;23372;52.050;4.810;2023-03-01T15:34:33;7.80;99.90
37528;DHT22;23372;52.050;4.810;2023-03-01T15:37:03;7.80;99.90
37528;DHT22;23372;52.050;4.810;2023-03-01T15:39:37;7.70;99.90
37528;DHT22;23372;52.050;4.810;2023-03-01T15:42:35;7.70;99.90
37528;DHT22;23372;52.050;4.810;2023-03-01T15:45:23;7.60;99.90
37528;DHT22;23372;52.050;4.810;2023-03-01T15:47:58;7.60;99.90
37528;DHT22;23372;52.050;4.810;2023-03-01T15:50:27;7.70;99.90
37528;DHT22;23372;52.050;4.810;2023-03-01T15:52:54;7.70;99.90
37528;DHT22;23372;52.050;4.810;2023-03-01T15:55:24;7.60;99.90
37528;DHT22;23372;52.050;4.810;2023-03-01T15:58:43;7.50;99.90
37528;DHT22;23372;52.050;4.810;2023-03-01T16:00:50;7.50;99.90
37528;DHT22;23372;52.050;4.810;2023-03-01T16:03:22;7.40;99.90
37528;DHT22;23372;52.050;4.810;2023-03-01T16:05:48;7.30;99.90
37528;DHT22;23372;52.050;4.810;2023-03-01T16:08:14;7.30;99.90
37528;DHT22;23372;52.050;4.810;2023-03-01T16:10:41;7.30;99.90
37528;DHT22;23372;52.050;4.810;2023-03-01T16:13:12;7.30;99.90
37528;DHT22;23372;52.050;4.810;2023-03-01T16:15:38;7.20;99.90
37528;DHT22;23372;52.050;4.810;2023-03-01T16:18:05;7.20;99.90
37528;DHT22;23372;52.050;4.810;2023-03-01T16:20:31;7.10;99.90
37528;DHT22;23372;52.050;4.810;2023-03-01T16:22:59;7.00;99.90
37528;DHT22;23372;52.050;4.810;2023-03-01T16:25:28;7.00;99.90
37528;DHT22;23372;52.050;4.810;2023-03-01T16:27:54;6.90;99.90
37528;DHT22;23372;52.050;4.810;2023-03-01T16:30:22;6.80;99.90
37528;DHT22;23372;52.050;4.810;2023-03-01T16:32:48;6.80;99.90
37528;DHT22;23372;52.050;4.810;2023-03-01T16:35:16;6.70;99.90
37528;DHT22;23372;52.050;4.810;2023-03-01T16:37:42;6.60;99.90
37528;DHT22;23372;52.050;4.810;2023-03-01T16:42:43;6.50;99.90
37528;DHT22;23372;52.050;4.810;2023-03-01T16:45:09;6.50;99.90
37528;DHT22;23372;52.050;4.810;2023-03-01T16:47:34;6.40;99.90
37528;DHT22;23372;52.050;4.810;2023-03-01T16:50:01;6.30;99.90
37528;DHT22;23372;52.050;4.810;2023-03-01T16:52:27;6.30;99.90
37528;DHT22;23372;52.050;4.810;2023-03-01T16:54:52;6.20;99.90
37528;DHT22;23372;52.050;4.810;2023-03-01T16:57:18;6.20;99.90
37528;DHT22;23372;52.050;4.810;2023-03-01T16:59:43;6.20;99.90
37528;DHT22;23372;52.050;4.810;2023-03-01T17:02:13;6.10;99.90
37528;DHT22;23372;52.050;4.810;2023-03-01T17:04:40;6.10;99.90
37528;DHT22;23372;52.050;4.810;2023-03-01T17:07:06;6.00;99.90
37528;DHT22;23372;52.050;4.810;2023-03-01T17:09:35;6.00;99.90
37528;DHT22;23372;52.050;4.810;2023-03-01T17:12:01;5.90;99.90
37528;DHT22;23372;52.050;4.810;2023-03-01T17:14:26;5.80;99.90
37528;DHT22;23372;52.050;4.810;2023-03-01T17:16:52;5.70;99.90
37528;DHT22;23372;52.050;4.810;2023-03-01T17:19:18;5.60;99.90
37528;DHT22;23372;52.050;4.810;2023-03-01T17:21:44;5.50;99.90
37528;DHT22;23372;52.050;4.810;2023-03-01T17:24:10;5.40;99.90
37528;DHT22;23372;52.050;4.810;2023-03-01T17:26:37;5.50;99.90
37528;DHT22;23372;52.050;4.810;2023-03-01T17:29:03;5.40;99.90
37528;DHT22;23372;52.050;4.810;2023-03-01T17:31:30;5.30;99.90
37528;DHT22;23372;52.050;4.810;2023-03-01T17:33:55;5.30;99.90
37528;DHT22;23372;52.050;4.810;2023-03-01T17:36:21;5.20;99.90
37528;DHT22;23372;52.050;4.810;2023-03-01T17:38:47;5.20;99.90
37528;DHT22;23372;52.050;4.810;2023-03-01T17:41:14;5.10;99.90
37528;DHT22;23372;52.050;4.810;2023-03-01T17:43:42;5.00;99.90
37528;DHT22;23372;52.050;4.810;2023-03-01T17:46:07;5.00;99.90
37528;DHT22;23372;52.050;4.810;2023-03-01T17:48:33;5.00;99.90
37528;DHT22;23372;52.050;4.810;2023-03-01T17:50:59;5.00;99.90
37528;DHT22;23372;52.050;4.810;2023-03-01T17:53:24;5.00;99.90
37528;DHT22;23372;52.050;4.810;2023-03-01T17:55:59;5.00;99.90
37528;DHT22;23372;52.050;4.810;2023-03-01T17:58:25;5.00;99.90
37528;DHT22;23372;52.050;4.810;2023-03-01T18:00:50;4.80;99.90